sensor_id;sensor_type;location;lat;lon;timestamp;P1;durP1;ratioP1;P2;durP2;ratioP2
78783;SDS011;68127;51.050;14.084;2023-04-27T00:00:58;7.20;;;3.22;;
78783;SDS011;68127;51.050;14.084;2023-04-27T00:03:23;7.80;;;3.42;;
78783;SDS011;68127;51.050;14.084;2023-04-27T00:05:48;7.35;;;3.08;;
78783;SDS011;68127;51.050;14.084;2023-04-27T00:08:14;8.35;;;3.30;;
78783;SDS011;68127;51.050;14.084;2023-04-27T00:10:39;6.55;;;3.13;;
78783;SDS011;68127;51.050;14.084;2023-04-27T00:13:04;9.52;;;3.28;;
78783;SDS011;68127;51.050;14.084;2023-04-27T00:15:30;8.30;;;3.45;;
78783;SDS011;68127;51.050;14.084;2023-04-27T00:17:55;6.43;;;3.00;;
78783;SDS011;68127;51.050;14.084;2023-04-27T00:20:21;7.32;;;3.42;;
78783;SDS011;68127;51.050;14.084;2023-04-27T00:22:46;10.52;;;3.65;;
78783;SDS011;68127;51.050;14.084;2023-04-27T00:25:12;6.35;;;3.50;;
78783;SDS011;68127;51.050;14.084;2023-04-27T00:27:37;7.43;;;3.35;;
78783;SDS011;68127;51.050;14.084;2023-04-27T00:30:02;7.03;;;3.40;;
78783;SDS011;68127;51.050;14.084;2023-04-27T00:32:28;8.85;;;3.55;;
78783;SDS011;68127;51.050;14.084;2023-04-27T00:34:53;10.85;;;3.17;;
78783;SDS011;68127;51.050;14.084;2023-04-27T00:37:19;6.25;;;3.20;;
78783;SDS011;68127;51.050;14.084;2023-04-27T00:39:44;7.28;;;3.92;;
78783;SDS011;68127;51.050;14.084;2023-04-27T00:42:09;11.70;;;3.60;;
78783;SDS011;68127;51.050;14.084;2023-04-27T00:44:39;7.85;;;3.42;;
78783;SDS011;68127;51.050;14.084;2023-04-27T00:47:04;10.40;;;3.70;;
78783;SDS011;68127;51.050;14.084;2023-04-27T00:49:30;10.43;;;3.63;;
78783;SDS011;68127;51.050;14.084;2023-04-27T00:51:55;11.82;;;4.18;;
78783;SDS011;68127;51.050;14.084;2023-04-27T00:54:20;8.85;;;3.95;;
78783;SDS011;68127;51.050;14.084;2023-04-27T00:56:50;7.75;;;3.65;;
78783;SDS011;68127;51.050;14.084;2023-04-27T00:59:16;8.35;;;3.65;;
78783;SDS011;68127;51.050;14.084;2023-04-27T01:01:41;9.93;;;3.50;;
78783;SDS011;68127;51.050;14.084;2023-04-27T01:04:07;9.50;;;3.85;;
78783;SDS011;68127;51.050;14.084;2023-04-27T01:06:32;7.50;;;3.35;;
78783;SDS011;68127;51.050;14.084;2023-04-27T01:08:57;8.20;;;3.90;;
78783;SDS011;68127;51.050;14.084;2023-04-27T01:11:22;7.85;;;3.60;;
78783;SDS011;68127;51.050;14.084;2023-04-27T01:13:48;5.68;;;3.33;;
78783;SDS011;68127;51.050;14.084;2023-04-27T01:16:13;6.72;;;3.50;;
78783;SDS011;68127;51.050;14.084;2023-04-27T01:18:38;7.13;;;3.20;;
78783;SDS011;68127;51.050;14.084;2023-04-27T01:21:04;7.03;;;3.53;;
78783;SDS011;68127;51.050;14.084;2023-04-27T01:23:30;10.25;;;3.58;;
78783;SDS011;68127;51.050;14.084;2023-04-27T01:25:55;6.65;;;3.50;;
78783;SDS011;68127;51.050;14.084;2023-04-27T01:28:20;8.32;;;3.55;;
78783;SDS011;68127;51.050;14.084;2023-04-27T01:30:46;11.93;;;3.80;;
78783;SDS011;68127;51.050;14.084;2023-04-27T01:33:11;11.32;;;3.70;;
78783;SDS011;68127;51.050;14.084;2023-04-27T01:35:36;6.40;;;3.63;;
78783;SDS011;68127;51.050;14.084;2023-04-27T01:38:01;5.68;;;3.40;;
78783;SDS011;68127;51.050;14.084;2023-04-27T01:40:27;7.63;;;4.07;;
78783;SDS011;68127;51.050;14.084;2023-04-27T01:42:52;8.23;;;3.63;;
78783;SDS011;68127;51.050;14.084;2023-04-27T01:45:17;9.27;;;3.80;;
78783;SDS011;68127;51.050;14.084;2023-04-27T01:47:42;8.00;;;3.83;;
78783;SDS011;68127;51.050;14.084;2023-04-27T01:50:08;7.40;;;3.30;;
78783;SDS011;68127;51.050;14.084;2023-04-27T01:52:33;6.60;;;3.50;;
78783;SDS011;68127;51.050;14.084;2023-04-27T01:54:58;13.98;;;4.63;;
78783;SDS011;68127;51.050;14.084;2023-04-27T01:57:24;7.70;;;3.65;;
78783;SDS011;68127;51.050;14.084;2023-04-27T01:59:49;9.20;;;3.72;;
78783;SDS011;68127;51.050;14.084;2023-04-27T02:02:14;8.95;;;3.58;;
78783;SDS011;68127;51.050;14.084;2023-04-27T02:04:40;8.27;;;3.08;;
78783;SDS011;68127;51.050;14.084;2023-04-27T02:07:07;6.65;;;3.20;;
78783;SDS011;68127;51.050;14.084;2023-04-27T02:09:32;7.97;;;3.65;;
78783;SDS011;68127;51.050;14.084;2023-04-27T02:11:57;6.72;;;3.17;;
78783;SDS011;68127;51.050;14.084;2023-04-27T02:14:22;7.60;;;3.67;;
78783;SDS011;68127;51.050;14.084;2023-04-27T02:16:48;7.88;;;3.95;;
78783;SDS011;68127;51.050;14.084;2023-04-27T02:19:13;7.78;;;3.80;;
78783;SDS011;68127;51.050;14.084;2023-04-27T02:21:39;10.75;;;3.75;;
78783;SDS011;68127;51.050;14.084;2023-04-27T02:24:04;7.88;;;3.67;;
78783;SDS011;68127;51.050;14.084;2023-04-27T02:26:30;6.93;;;3.75;;
78783;SDS011;68127;51.050;14.084;2023-04-27T02:28:56;7.40;;;3.40;;
78783;SDS011;68127;51.050;14.084;2023-04-27T02:31:21;7.22;;;3.63;;
78783;SDS011;68127;51.050;14.084;2023-04-27T02:33:46;6.00;;;3.50;;
78783;SDS011;68127;51.050;14.084;2023-04-27T02:36:12;9.02;;;3.55;;
78783;SDS011;68127;51.050;14.084;2023-04-27T02:38:37;9.35;;;3.53;;
78783;SDS011;68127;51.050;14.084;2023-04-27T02:41:02;10.88;;;3.78;;
78783;SDS011;68127;51.050;14.084;2023-04-27T02:43:27;7.28;;;3.40;;
78783;SDS011;68127;51.050;14.084;2023-04-27T02:45:53;9.38;;;3.78;;
78783;SDS011;68127;51.050;14.084;2023-04-27T02:48:18;8.13;;;3.40;;
78783;SDS011;68127;51.050;14.084;2023-04-27T02:50:43;6.80;;;3.65;;
78783;SDS011;68127;51.050;14.084;2023-04-27T02:53:09;9.90;;;3.53;;
78783;SDS011;68127;51.050;14.084;2023-04-27T02:55:35;9.05;;;3.40;;
78783;SDS011;68127;51.050;14.084;2023-04-27T02:58:01;7.15;;;3.35;;
78783;SDS011;68127;51.050;14.084;2023-04-27T03:00:26;10.00;;;3.50;;
78783;SDS011;68127;51.050;14.084;2023-04-27T03:02:51;11.18;;;3.38;;
78783;SDS011;68127;51.050;14.084;2023-04-27T03:05:17;6.35;;;3.25;;
78783;SDS011;68127;51.050;14.084;2023-04-27T03:07:42;10.60;;;3.92;;
78783;SDS011;68127;51.050;14.084;2023-04-27T03:10:07;6.60;;;3.55;;
78783;SDS011;68127;51.050;14.084;2023-04-27T03:12:33;10.85;;;3.78;;
78783;SDS011;68127;51.050;14.084;2023-04-27T03:14:58;7.28;;;3.13;;
78783;SDS011;68127;51.050;14.084;2023-04-27T03:17:24;9.57;;;2.90;;
78783;SDS011;68127;51.050;14.084;2023-04-27T03:19:50;7.32;;;3.47;;
78783;SDS011;68127;51.050;14.084;2023-04-27T03:22:16;10.32;;;3.50;;
78783;SDS011;68127;51.050;14.084;2023-04-27T03:24:41;11.95;;;3.63;;
78783;SDS011;68127;51.050;14.084;2023-04-27T03:27:07;8.68;;;4.65;;
78783;SDS011;68127;51.050;14.084;2023-04-27T03:29:32;8.77;;;3.70;;
78783;SDS011;68127;51.050;14.084;2023-04-27T03:31:57;7.20;;;3.42;;
78783;SDS011;68127;51.050;14.084;2023-04-27T03:34:22;8.15;;;3.15;;
78783;SDS011;68127;51.050;14.084;2023-04-27T03:36:48;6.53;;;3.17;;
78783;SDS011;68127;51.050;14.084;2023-04-27T03:39:13;8.27;;;3.85;;
78783;SDS011;68127;51.050;14.084;2023-04-27T03:41:38;7.07;;;3.80;;
78783;SDS011;68127;51.050;14.084;2023-04-27T03:44:04;8.40;;;3.03;;
78783;SDS011;68127;51.050;14.084;2023-04-27T03:46:29;9.05;;;3.30;;
78783;SDS011;68127;51.050;14.084;2023-04-27T03:48:55;7.43;;;3.13;;
78783;SDS011;68127;51.050;14.084;2023-04-27T03:51:20;8.25;;;3.22;;
78783;SDS011;68127;51.050;14.084;2023-04-27T03:53:45;8.07;;;3.65;;
78783;SDS011;68127;51.050;14.084;2023-04-27T03:56:11;8.23;;;3.33;;
78783;SDS011;68127;51.050;14.084;2023-04-27T03:58:36;8.23;;;3.40;;
78783;SDS011;68127;51.050;14.084;2023-04-27T04:01:01;5.82;;;3.47;;
78783;SDS011;68127;51.050;14.084;2023-04-27T04:03:27;11.18;;;3.75;;
78783;SDS011;68127;51.050;14.084;2023-04-27T04:05:52;10.02;;;3.70;;
78783;SDS011;68127;51.050;14.084;2023-04-27T04:08:17;9.32;;;3.35;;
78783;SDS011;68127;51.050;14.084;2023-04-27T04:10:43;7.68;;;3.45;;
78783;SDS011;68127;51.050;14.084;2023-04-27T04:13:08;5.78;;;3.35;;
78783;SDS011;68127;51.050;14.084;2023-04-27T04:15:33;7.65;;;3.30;;
78783;SDS011;68127;51.050;14.084;2023-04-27T04:17:58;9.48;;;3.53;;
78783;SDS011;68127;51.050;14.084;2023-04-27T04:20:24;7.78;;;3.33;;
78783;SDS011;68127;51.050;14.084;2023-04-27T04:22:49;6.15;;;3.22;;
78783;SDS011;68127;51.050;14.084;2023-04-27T04:25:14;6.35;;;3.35;;
78783;SDS011;68127;51.050;14.084;2023-04-27T04:27:40;4.97;;;2.95;;
78783;SDS011;68127;51.050;14.084;2023-04-27T04:30:05;9.43;;;3.25;;
78783;SDS011;68127;51.050;14.084;2023-04-27T04:32:31;8.60;;;3.10;;
78783;SDS011;68127;51.050;14.084;2023-04-27T04:34:57;8.50;;;3.45;;
78783;SDS011;68127;51.050;14.084;2023-04-27T04:37:23;7.05;;;3.50;;
78783;SDS011;68127;51.050;14.084;2023-04-27T04:39:48;5.80;;;3.30;;
78783;SDS011;68127;51.050;14.084;2023-04-27T04:42:13;7.20;;;3.58;;
78783;SDS011;68127;51.050;14.084;2023-04-27T04:44:39;10.30;;;2.88;;
78783;SDS011;68127;51.050;14.084;2023-04-27T04:47:04;9.70;;;3.78;;
78783;SDS011;68127;51.050;14.084;2023-04-27T04:49:30;9.38;;;3.50;;
78783;SDS011;68127;51.050;14.084;2023-04-27T04:51:55;10.35;;;3.58;;
78783;SDS011;68127;51.050;14.084;2023-04-27T04:54:21;7.63;;;3.50;;
78783;SDS011;68127;51.050;14.084;2023-04-27T04:56:46;8.48;;;3.50;;
78783;SDS011;68127;51.050;14.084;2023-04-27T04:59:11;9.00;;;4.28;;
78783;SDS011;68127;51.050;14.084;2023-04-27T05:01:36;7.72;;;2.95;;
78783;SDS011;68127;51.050;14.084;2023-04-27T05:04:02;8.95;;;3.25;;
78783;SDS011;68127;51.050;14.084;2023-04-27T05:06:27;9.95;;;3.58;;
78783;SDS011;68127;51.050;14.084;2023-04-27T05:08:53;6.55;;;3.55;;
78783;SDS011;68127;51.050;14.084;2023-04-27T05:11:18;5.97;;;3.13;;
78783;SDS011;68127;51.050;14.084;2023-04-27T05:13:44;5.50;;;3.10;;
78783;SDS011;68127;51.050;14.084;2023-04-27T05:16:09;7.50;;;3.10;;
78783;SDS011;68127;51.050;14.084;2023-04-27T05:18:34;8.60;;;3.35;;
78783;SDS011;68127;51.050;14.084;2023-04-27T05:21:00;13.23;;;3.10;;
78783;SDS011;68127;51.050;14.084;2023-04-27T05:23:25;9.07;;;3.55;;
78783;SDS011;68127;51.050;14.084;2023-04-27T05:25:50;8.57;;;3.28;;
78783;SDS011;68127;51.050;14.084;2023-04-27T05:28:16;7.53;;;4.00;;
78783;SDS011;68127;51.050;14.084;2023-04-27T05:30:41;9.25;;;3.85;;
78783;SDS011;68127;51.050;14.084;2023-04-27T05:33:07;7.72;;;3.80;;
78783;SDS011;68127;51.050;14.084;2023-04-27T05:35:32;9.35;;;3.72;;
78783;SDS011;68127;51.050;14.084;2023-04-27T05:37:57;8.48;;;3.35;;
78783;SDS011;68127;51.050;14.084;2023-04-27T05:40:23;5.05;;;3.05;;
78783;SDS011;68127;51.050;14.084;2023-04-27T05:42:48;9.50;;;3.60;;
78783;SDS011;68127;51.050;14.084;2023-04-27T05:45:13;6.35;;;3.40;;
78783;SDS011;68127;51.050;14.084;2023-04-27T05:47:39;10.20;;;3.40;;
78783;SDS011;68127;51.050;14.084;2023-04-27T05:50:04;8.45;;;4.15;;
78783;SDS011;68127;51.050;14.084;2023-04-27T05:52:30;9.45;;;3.90;;
78783;SDS011;68127;51.050;14.084;2023-04-27T05:54:56;7.78;;;4.18;;
78783;SDS011;68127;51.050;14.084;2023-04-27T05:57:22;12.60;;;3.38;;
78783;SDS011;68127;51.050;14.084;2023-04-27T05:59:47;6.82;;;3.35;;
78783;SDS011;68127;51.050;14.084;2023-04-27T06:02:13;8.70;;;3.65;;
78783;SDS011;68127;51.050;14.084;2023-04-27T06:04:38;6.88;;;3.45;;
78783;SDS011;68127;51.050;14.084;2023-04-27T06:07:13;6.80;;;3.10;;
78783;SDS011;68127;51.050;14.084;2023-04-27T06:09:39;6.15;;;3.17;;
78783;SDS011;68127;51.050;14.084;2023-04-27T06:12:05;8.40;;;3.30;;
78783;SDS011;68127;51.050;14.084;2023-04-27T06:14:31;6.60;;;3.65;;
78783;SDS011;68127;51.050;14.084;2023-04-27T06:16:57;7.40;;;3.45;;
78783;SDS011;68127;51.050;14.084;2023-04-27T06:19:22;7.47;;;3.97;;
78783;SDS011;68127;51.050;14.084;2023-04-27T06:21:49;5.95;;;3.30;;
78783;SDS011;68127;51.050;14.084;2023-04-27T06:24:14;10.13;;;3.72;;
78783;SDS011;68127;51.050;14.084;2023-04-27T06:26:40;6.68;;;3.00;;
78783;SDS011;68127;51.050;14.084;2023-04-27T06:29:05;18.05;;;4.03;;
78783;SDS011;68127;51.050;14.084;2023-04-27T06:31:32;8.95;;;3.78;;
78783;SDS011;68127;51.050;14.084;2023-04-27T06:34:06;8.00;;;3.60;;
78783;SDS011;68127;51.050;14.084;2023-04-27T06:36:31;7.22;;;3.38;;
78783;SDS011;68127;51.050;14.084;2023-04-27T06:38:57;8.23;;;4.00;;
78783;SDS011;68127;51.050;14.084;2023-04-27T06:41:24;9.43;;;5.32;;
78783;SDS011;68127;51.050;14.084;2023-04-27T06:43:50;9.18;;;3.92;;
78783;SDS011;68127;51.050;14.084;2023-04-27T06:46:15;6.70;;;3.70;;
78783;SDS011;68127;51.050;14.084;2023-04-27T06:48:41;13.02;;;5.95;;
78783;SDS011;68127;51.050;14.084;2023-04-27T06:51:06;9.43;;;4.35;;
78783;SDS011;68127;51.050;14.084;2023-04-27T06:53:31;10.30;;;5.03;;
78783;SDS011;68127;51.050;14.084;2023-04-27T06:55:57;9.32;;;4.43;;
78783;SDS011;68127;51.050;14.084;2023-04-27T06:58:22;8.95;;;5.15;;
78783;SDS011;68127;51.050;14.084;2023-04-27T07:00:47;9.93;;;4.55;;
78783;SDS011;68127;51.050;14.084;2023-04-27T07:03:13;9.85;;;4.55;;
78783;SDS011;68127;51.050;14.084;2023-04-27T07:05:38;11.98;;;4.60;;
78783;SDS011;68127;51.050;14.084;2023-04-27T07:08:04;10.88;;;4.20;;
78783;SDS011;68127;51.050;14.084;2023-04-27T07:10:29;8.27;;;4.15;;
78783;SDS011;68127;51.050;14.084;2023-04-27T07:12:55;10.60;;;4.53;;
78783;SDS011;68127;51.050;14.084;2023-04-27T07:15:21;7.05;;;3.58;;
78783;SDS011;68127;51.050;14.084;2023-04-27T07:17:46;8.00;;;4.07;;
78783;SDS011;68127;51.050;14.084;2023-04-27T07:20:11;10.55;;;3.95;;
78783;SDS011;68127;51.050;14.084;2023-04-27T07:22:38;9.65;;;3.65;;
78783;SDS011;68127;51.050;14.084;2023-04-27T07:25:03;9.02;;;4.00;;
78783;SDS011;68127;51.050;14.084;2023-04-27T07:27:29;7.88;;;4.63;;
78783;SDS011;68127;51.050;14.084;2023-04-27T07:29:55;8.43;;;4.18;;
78783;SDS011;68127;51.050;14.084;2023-04-27T07:32:21;10.43;;;4.18;;
78783;SDS011;68127;51.050;14.084;2023-04-27T07:34:46;7.05;;;4.30;;
78783;SDS011;68127;51.050;14.084;2023-04-27T07:37:12;8.50;;;4.10;;
78783;SDS011;68127;51.050;14.084;2023-04-27T07:39:37;8.73;;;4.60;;
78783;SDS011;68127;51.050;14.084;2023-04-27T07:42:03;8.18;;;4.63;;
78783;SDS011;68127;51.050;14.084;2023-04-27T07:44:29;8.68;;;4.13;;
78783;SDS011;68127;51.050;14.084;2023-04-27T07:46:54;8.20;;;4.30;;
78783;SDS011;68127;51.050;14.084;2023-04-27T07:49:22;9.32;;;4.55;;
78783;SDS011;68127;51.050;14.084;2023-04-27T07:51:48;8.68;;;4.47;;
78783;SDS011;68127;51.050;14.084;2023-04-27T07:54:14;7.88;;;4.55;;
78783;SDS011;68127;51.050;14.084;2023-04-27T07:56:40;12.75;;;4.85;;
78783;SDS011;68127;51.050;14.084;2023-04-27T07:59:06;10.20;;;4.38;;
78783;SDS011;68127;51.050;14.084;2023-04-27T08:01:31;9.82;;;4.70;;
78783;SDS011;68127;51.050;14.084;2023-04-27T08:03:56;10.48;;;4.30;;
78783;SDS011;68127;51.050;14.084;2023-04-27T08:06:21;11.32;;;5.38;;
78783;SDS011;68127;51.050;14.084;2023-04-27T08:08:47;6.75;;;4.05;;
78783;SDS011;68127;51.050;14.084;2023-04-27T08:11:12;10.70;;;4.70;;
78783;SDS011;68127;51.050;14.084;2023-04-27T08:13:37;9.40;;;4.68;;
78783;SDS011;68127;51.050;14.084;2023-04-27T08:16:03;9.77;;;4.25;;
78783;SDS011;68127;51.050;14.084;2023-04-27T08:18:28;9.70;;;4.63;;
78783;SDS011;68127;51.050;14.084;2023-04-27T08:20:54;8.70;;;4.78;;
78783;SDS011;68127;51.050;14.084;2023-04-27T08:23:19;9.18;;;4.55;;
78783;SDS011;68127;51.050;14.084;2023-04-27T08:25:45;8.68;;;4.93;;
78783;SDS011;68127;51.050;14.084;2023-04-27T08:28:11;10.85;;;5.25;;
78783;SDS011;68127;51.050;14.084;2023-04-27T08:30:36;9.98;;;5.07;;
78783;SDS011;68127;51.050;14.084;2023-04-27T08:33:02;8.38;;;4.15;;
78783;SDS011;68127;51.050;14.084;2023-04-27T08:35:27;10.38;;;4.70;;
78783;SDS011;68127;51.050;14.084;2023-04-27T08:37:52;8.50;;;4.07;;
78783;SDS011;68127;51.050;14.084;2023-04-27T08:40:18;9.82;;;4.50;;
78783;SDS011;68127;51.050;14.084;2023-04-27T08:42:52;8.50;;;4.90;;
78783;SDS011;68127;51.050;14.084;2023-04-27T08:45:18;7.85;;;4.13;;
78783;SDS011;68127;51.050;14.084;2023-04-27T08:47:44;9.68;;;4.47;;
78783;SDS011;68127;51.050;14.084;2023-04-27T08:50:10;6.63;;;4.00;;
78783;SDS011;68127;51.050;14.084;2023-04-27T08:52:36;8.30;;;4.50;;
78783;SDS011;68127;51.050;14.084;2023-04-27T08:55:01;10.52;;;4.60;;
78783;SDS011;68127;51.050;14.084;2023-04-27T08:57:28;8.23;;;4.40;;
78783;SDS011;68127;51.050;14.084;2023-04-27T08:59:56;7.00;;;4.00;;
78783;SDS011;68127;51.050;14.084;2023-04-27T09:02:28;9.63;;;4.30;;
78783;SDS011;68127;51.050;14.084;2023-04-27T09:04:54;8.50;;;3.88;;
78783;SDS011;68127;51.050;14.084;2023-04-27T09:07:20;13.93;;;5.32;;
78783;SDS011;68127;51.050;14.084;2023-04-27T09:09:45;8.25;;;4.57;;
78783;SDS011;68127;51.050;14.084;2023-04-27T09:12:16;9.13;;;4.78;;
78783;SDS011;68127;51.050;14.084;2023-04-27T09:14:42;8.10;;;4.20;;
78783;SDS011;68127;51.050;14.084;2023-04-27T09:17:07;10.32;;;4.35;;
78783;SDS011;68127;51.050;14.084;2023-04-27T09:19:33;10.57;;;4.30;;
78783;SDS011;68127;51.050;14.084;2023-04-27T09:22:02;9.18;;;3.50;;
78783;SDS011;68127;51.050;14.084;2023-04-27T09:24:31;6.82;;;3.60;;
78783;SDS011;68127;51.050;14.084;2023-04-27T09:26:56;8.35;;;3.40;;
78783;SDS011;68127;51.050;14.084;2023-04-27T09:29:30;12.73;;;4.50;;
78783;SDS011;68127;51.050;14.084;2023-04-27T09:31:57;7.40;;;3.90;;
78783;SDS011;68127;51.050;14.084;2023-04-27T09:34:22;7.78;;;3.60;;
78783;SDS011;68127;51.050;14.084;2023-04-27T09:36:47;9.20;;;3.80;;
78783;SDS011;68127;51.050;14.084;2023-04-27T09:39:13;8.25;;;3.83;;
78783;SDS011;68127;51.050;14.084;2023-04-27T09:41:39;7.63;;;4.35;;
78783;SDS011;68127;51.050;14.084;2023-04-27T09:44:06;7.03;;;3.85;;
78783;SDS011;68127;51.050;14.084;2023-04-27T09:46:32;6.43;;;3.40;;
78783;SDS011;68127;51.050;14.084;2023-04-27T09:48:57;9.63;;;3.75;;
78783;SDS011;68127;51.050;14.084;2023-04-27T09:51:23;6.47;;;3.35;;
78783;SDS011;68127;51.050;14.084;2023-04-27T09:53:50;5.30;;;3.22;;
78783;SDS011;68127;51.050;14.084;2023-04-27T10:01:56;8.45;;;4.97;;
78783;SDS011;68127;51.050;14.084;2023-04-27T10:07:26;8.75;;;4.45;;
78783;SDS011;68127;51.050;14.084;2023-04-27T10:09:52;10.70;;;5.05;;
78783;SDS011;68127;51.050;14.084;2023-04-27T10:14:53;7.80;;;4.47;;
78783;SDS011;68127;51.050;14.084;2023-04-27T10:17:23;21.50;;;8.35;;
78783;SDS011;68127;51.050;14.084;2023-04-27T10:20:00;10.88;;;4.50;;
78783;SDS011;68127;51.050;14.084;2023-04-27T10:22:41;10.25;;;5.40;;
78783;SDS011;68127;51.050;14.084;2023-04-27T10:25:11;7.72;;;4.40;;
78783;SDS011;68127;51.050;14.084;2023-04-27T10:27:41;12.38;;;5.00;;
78783;SDS011;68127;51.050;14.084;2023-04-27T10:30:35;8.74;;;4.76;;
78783;SDS011;68127;51.050;14.084;2023-04-27T10:33:06;8.10;;;4.47;;
78783;SDS011;68127;51.050;14.084;2023-04-27T10:35:34;8.45;;;5.20;;
78783;SDS011;68127;51.050;14.084;2023-04-27T10:38:07;9.32;;;5.50;;
78783;SDS011;68127;51.050;14.084;2023-04-27T10:40:39;10.98;;;5.55;;
78783;SDS011;68127;51.050;14.084;2023-04-27T10:43:23;10.70;;;5.45;;
78783;SDS011;68127;51.050;14.084;2023-04-27T10:45:52;13.10;;;7.60;;
78783;SDS011;68127;51.050;14.084;2023-04-27T10:48:18;15.13;;;6.68;;
78783;SDS011;68127;51.050;14.084;2023-04-27T10:50:49;15.75;;;6.47;;
78783;SDS011;68127;51.050;14.084;2023-04-27T10:53:15;10.68;;;6.80;;
78783;SDS011;68127;51.050;14.084;2023-04-27T10:55:41;11.05;;;6.25;;
78783;SDS011;68127;51.050;14.084;2023-04-27T10:58:09;9.00;;;5.15;;
78783;SDS011;68127;51.050;14.084;2023-04-27T11:00:35;9.02;;;5.50;;
78783;SDS011;68127;51.050;14.084;2023-04-27T11:03:15;11.43;;;5.45;;
78783;SDS011;68127;51.050;14.084;2023-04-27T11:05:47;8.82;;;5.50;;
78783;SDS011;68127;51.050;14.084;2023-04-27T11:08:23;8.65;;;5.25;;
78783;SDS011;68127;51.050;14.084;2023-04-27T11:10:56;11.43;;;5.32;;
78783;SDS011;68127;51.050;14.084;2023-04-27T11:13:22;12.40;;;5.18;;
78783;SDS011;68127;51.050;14.084;2023-04-27T11:18:26;10.48;;;5.82;;
78783;SDS011;68127;51.050;14.084;2023-04-27T11:21:06;10.23;;;5.63;;
78783;SDS011;68127;51.050;14.084;2023-04-27T11:23:38;11.00;;;5.68;;
78783;SDS011;68127;51.050;14.084;2023-04-27T11:26:07;10.07;;;5.70;;
78783;SDS011;68127;51.050;14.084;2023-04-27T11:28:36;11.70;;;6.97;;
78783;SDS011;68127;51.050;14.084;2023-04-27T11:31:05;17.60;;;10.05;;
78783;SDS011;68127;51.050;14.084;2023-04-27T11:33:31;14.45;;;7.97;;
78783;SDS011;68127;51.050;14.084;2023-04-27T11:35:56;10.93;;;6.63;;
78783;SDS011;68127;51.050;14.084;2023-04-27T11:38:22;9.93;;;6.18;;
78783;SDS011;68127;51.050;14.084;2023-04-27T11:41:03;10.55;;;6.28;;
78783;SDS011;68127;51.050;14.084;2023-04-27T11:43:31;8.00;;;5.25;;
78783;SDS011;68127;51.050;14.084;2023-04-27T11:45:57;10.38;;;6.28;;
78783;SDS011;68127;51.050;14.084;2023-04-27T11:48:23;11.63;;;6.60;;
78783;SDS011;68127;51.050;14.084;2023-04-27T11:50:49;8.40;;;5.10;;
78783;SDS011;68127;51.050;14.084;2023-04-27T11:53:14;8.25;;;5.00;;
78783;SDS011;68127;51.050;14.084;2023-04-27T11:55:40;10.25;;;4.93;;
78783;SDS011;68127;51.050;14.084;2023-04-27T11:58:13;12.38;;;5.88;;
78783;SDS011;68127;51.050;14.084;2023-04-27T12:00:39;8.25;;;4.88;;
78783;SDS011;68127;51.050;14.084;2023-04-27T12:03:04;8.15;;;4.65;;
78783;SDS011;68127;51.050;14.084;2023-04-27T12:05:30;7.15;;;4.57;;
78783;SDS011;68127;51.050;14.084;2023-04-27T12:07:55;7.85;;;4.57;;
78783;SDS011;68127;51.050;14.084;2023-04-27T12:10:21;8.82;;;5.28;;
78783;SDS011;68127;51.050;14.084;2023-04-27T12:12:46;9.07;;;5.32;;
78783;SDS011;68127;51.050;14.084;2023-04-27T12:15:11;8.52;;;5.57;;
78783;SDS011;68127;51.050;14.084;2023-04-27T12:17:37;8.05;;;5.10;;
78783;SDS011;68127;51.050;14.084;2023-04-27T12:20:03;10.32;;;4.97;;
78783;SDS011;68127;51.050;14.084;2023-04-27T12:22:29;8.00;;;5.65;;
78783;SDS011;68127;51.050;14.084;2023-04-27T12:24:54;9.80;;;5.50;;
78783;SDS011;68127;51.050;14.084;2023-04-27T12:27:20;7.13;;;4.70;;
78783;SDS011;68127;51.050;14.084;2023-04-27T12:29:45;9.70;;;4.80;;
78783;SDS011;68127;51.050;14.084;2023-04-27T12:32:10;7.90;;;5.22;;
78783;SDS011;68127;51.050;14.084;2023-04-27T12:34:35;8.45;;;4.70;;
78783;SDS011;68127;51.050;14.084;2023-04-27T12:37:03;10.07;;;4.72;;
78783;SDS011;68127;51.050;14.084;2023-04-27T12:39:28;7.90;;;4.65;;
78783;SDS011;68127;51.050;14.084;2023-04-27T12:41:54;9.05;;;5.07;;
78783;SDS011;68127;51.050;14.084;2023-04-27T12:44:19;8.25;;;4.72;;
78783;SDS011;68127;51.050;14.084;2023-04-27T12:46:45;9.30;;;4.53;;
78783;SDS011;68127;51.050;14.084;2023-04-27T12:49:12;7.82;;;4.47;;
78783;SDS011;68127;51.050;14.084;2023-04-27T12:51:37;7.80;;;4.85;;
78783;SDS011;68127;51.050;14.084;2023-04-27T12:54:02;9.60;;;5.82;;
78783;SDS011;68127;51.050;14.084;2023-04-27T12:56:28;10.00;;;5.35;;
78783;SDS011;68127;51.050;14.084;2023-04-27T12:58:54;9.00;;;5.10;;
78783;SDS011;68127;51.050;14.084;2023-04-27T13:01:20;8.07;;;4.97;;
78783;SDS011;68127;51.050;14.084;2023-04-27T13:03:49;8.43;;;5.03;;
78783;SDS011;68127;51.050;14.084;2023-04-27T13:06:16;10.98;;;5.13;;
78783;SDS011;68127;51.050;14.084;2023-04-27T13:08:41;6.93;;;4.75;;
78783;SDS011;68127;51.050;14.084;2023-04-27T13:11:06;9.80;;;5.30;;
78783;SDS011;68127;51.050;14.084;2023-04-27T13:13:31;8.15;;;4.90;;
78783;SDS011;68127;51.050;14.084;2023-04-27T13:15:57;9.70;;;4.95;;
78783;SDS011;68127;51.050;14.084;2023-04-27T13:18:22;8.50;;;4.90;;
78783;SDS011;68127;51.050;14.084;2023-04-27T13:20:48;13.13;;;6.65;;
78783;SDS011;68127;51.050;14.084;2023-04-27T13:23:13;12.38;;;5.40;;
78783;SDS011;68127;51.050;14.084;2023-04-27T13:25:38;9.05;;;5.55;;
78783;SDS011;68127;51.050;14.084;2023-04-27T13:28:04;12.43;;;6.13;;
78783;SDS011;68127;51.050;14.084;2023-04-27T13:30:29;9.88;;;5.40;;
78783;SDS011;68127;51.050;14.084;2023-04-27T13:32:55;11.18;;;5.85;;
78783;SDS011;68127;51.050;14.084;2023-04-27T13:35:20;8.55;;;5.28;;
78783;SDS011;68127;51.050;14.084;2023-04-27T13:37:47;9.68;;;5.55;;
78783;SDS011;68127;51.050;14.084;2023-04-27T13:40:13;9.88;;;5.38;;
78783;SDS011;68127;51.050;14.084;2023-04-27T13:42:38;12.20;;;6.22;;
78783;SDS011;68127;51.050;14.084;2023-04-27T13:45:04;9.40;;;6.00;;
78783;SDS011;68127;51.050;14.084;2023-04-27T13:47:30;12.02;;;6.05;;
78783;SDS011;68127;51.050;14.084;2023-04-27T13:50:04;12.60;;;6.05;;
78783;SDS011;68127;51.050;14.084;2023-04-27T13:52:30;12.10;;;6.55;;
78783;SDS011;68127;51.050;14.084;2023-04-27T13:54:56;9.02;;;5.38;;
78783;SDS011;68127;51.050;14.084;2023-04-27T13:57:21;13.25;;;6.50;;
78783;SDS011;68127;51.050;14.084;2023-04-27T13:59:47;11.20;;;5.65;;
78783;SDS011;68127;51.050;14.084;2023-04-27T14:02:12;9.23;;;5.07;;
78783;SDS011;68127;51.050;14.084;2023-04-27T14:04:37;11.27;;;6.65;;
78783;SDS011;68127;51.050;14.084;2023-04-27T14:07:03;11.35;;;7.35;;
78783;SDS011;68127;51.050;14.084;2023-04-27T14:09:28;11.10;;;5.20;;
78783;SDS011;68127;51.050;14.084;2023-04-27T14:11:54;9.82;;;6.03;;
78783;SDS011;68127;51.050;14.084;2023-04-27T14:14:19;11.20;;;6.03;;
78783;SDS011;68127;51.050;14.084;2023-04-27T14:16:44;8.65;;;5.65;;
78783;SDS011;68127;51.050;14.084;2023-04-27T14:19:10;9.60;;;5.68;;
78783;SDS011;68127;51.050;14.084;2023-04-27T14:21:39;10.48;;;5.68;;
78783;SDS011;68127;51.050;14.084;2023-04-27T14:24:04;8.52;;;5.25;;
78783;SDS011;68127;51.050;14.084;2023-04-27T14:26:29;7.72;;;5.53;;
78783;SDS011;68127;51.050;14.084;2023-04-27T14:28:55;9.52;;;5.63;;
78783;SDS011;68127;51.050;14.084;2023-04-27T14:31:20;7.78;;;5.38;;
78783;SDS011;68127;51.050;14.084;2023-04-27T14:33:46;12.60;;;6.18;;
78783;SDS011;68127;51.050;14.084;2023-04-27T14:36:11;9.23;;;5.82;;
78783;SDS011;68127;51.050;14.084;2023-04-27T14:38:37;10.98;;;7.03;;